CheckWX is a tool to help pilots better visualize weather data.  It is not intended as a substitute for an official pre-flight weather briefing.

01:10:20 UTC

KCMD METAR
Cullman Regional-Folsom Field Airport
Cullman, Alabama, USA
Current

15 mins ago

KCMD 130055Z AUTO 14006KT 10SM BKN023 09/M01 A3027 RMK AO2 T00851008
Observed
Dec-13 @ 00:55 UTC
Wind
  • 140° at 6 KTS
Visibility
10 SM
Flight Rules
MVFR
Cloud Levels
  • Broken at 2,300' AGL
Temperature
C / 48°F
Dewpoint
-1°C / 30°F
Humidity
50%
Altimeter
30.27" Hg
Pressure
1025.02 hPa
Previous

35 mins ago

KCMD 130035Z AUTO 13006KT 10SM BKN025 09/M01 A3027 RMK AO2 T00881011
Observed
Dec-13 @ 00:35 UTC
Wind
  • 130° at 6 KTS
Visibility
10 SM
Flight Rules
MVFR
Cloud Levels
  • Broken at 2,500' AGL
Temperature
C / 48°F
Dewpoint
-1°C / 30°F
Humidity
50%
Altimeter
30.27" Hg
Pressure
1025.02 hPa
Previous

55 mins ago

KCMD 130015Z AUTO 14005KT 10SM BKN027 09/M01 A3028 RMK AO2 T00901015
Observed
Dec-13 @ 00:15 UTC
Wind
  • 140° at 5 KTS
Visibility
10 SM
Flight Rules
MVFR
Cloud Levels
  • Broken at 2,700' AGL
Temperature
C / 48°F
Dewpoint
-2°C / 28°F
Humidity
46%
Altimeter
30.28" Hg
Pressure
1025.42 hPa